createdAt,value
2022-10-31T00:01:40.589Z,12.38
2022-10-31T00:04:46.613Z,12.35
2022-10-31T00:07:55.906Z,12.34
2022-10-31T00:11:01.967Z,12.32
2022-10-31T00:14:08.609Z,12.33
2022-10-31T00:17:14.722Z,12.32
2022-10-31T00:20:21.019Z,12.32
2022-10-31T00:23:25.525Z,12.30
2022-10-31T00:26:33.162Z,12.26
2022-10-31T00:29:39.540Z,12.25
2022-10-31T00:32:44.040Z,12.22
2022-10-31T00:35:54.938Z,12.14
2022-10-31T00:39:02.594Z,12.11
2022-10-31T00:42:08.821Z,12.07
2022-10-31T00:45:13.747Z,12.04
2022-10-31T00:48:19.920Z,11.98
2022-10-31T00:51:26.064Z,11.96
2022-10-31T00:54:32.645Z,11.95
2022-10-31T00:57:38.714Z,11.93
2022-10-31T01:00:46.841Z,11.91
2022-10-31T01:03:55.778Z,11.88
2022-10-31T01:07:02.457Z,11.84
2022-10-31T01:10:10.053Z,11.81
2022-10-31T01:13:16.110Z,11.78
2022-10-31T01:16:24.336Z,11.73
2022-10-31T01:19:30.606Z,11.68
2022-10-31T01:22:35.549Z,11.64
2022-10-31T01:25:43.636Z,11.58
2022-10-31T01:28:51.864Z,11.58
2022-10-31T01:31:58.100Z,11.56
2022-10-31T01:35:04.496Z,11.55
2022-10-31T01:38:10.509Z,11.54
2022-10-31T01:41:18.379Z,11.52
2022-10-31T01:44:59.152Z,11.48
2022-10-31T01:48:05.463Z,11.42
2022-10-31T01:51:15.492Z,11.37
2022-10-31T01:54:26.257Z,11.33
2022-10-31T01:57:34.340Z,11.30
2022-10-31T02:00:41.166Z,11.27
2022-10-31T02:03:48.716Z,11.24
2022-10-31T02:06:58.975Z,11.20
2022-10-31T02:10:07.163Z,11.17
2022-10-31T02:13:14.432Z,11.14
2022-10-31T02:16:20.643Z,11.13
2022-10-31T02:19:37.024Z,11.12
2022-10-31T02:22:53.550Z,11.10
2022-10-31T02:26:32.177Z,11.07
2022-10-31T02:29:56.874Z,11.04
2022-10-31T02:33:17.095Z,11.02
2022-10-31T02:36:30.808Z,10.98
2022-10-31T02:39:47.034Z,10.97
2022-10-31T02:43:00.766Z,10.96
2022-10-31T02:46:16.545Z,10.96
2022-10-31T02:49:30.097Z,10.96
2022-10-31T02:52:38.082Z,10.98
2022-10-31T02:55:58.787Z,10.97
2022-10-31T02:59:07.113Z,10.97
2022-10-31T03:02:34.036Z,10.97
2022-10-31T03:05:56.929Z,10.97
2022-10-31T03:09:12.189Z,10.94
2022-10-31T03:12:28.096Z,10.87
2022-10-31T03:15:37.102Z,10.80
2022-10-31T03:18:46.550Z,10.74
2022-10-31T03:21:57.847Z,10.68
2022-10-31T03:25:06.805Z,10.63
2022-10-31T03:28:17.061Z,10.61
2022-10-31T03:31:27.588Z,10.61
2022-10-31T03:34:34.279Z,10.61
2022-10-31T03:37:44.129Z,10.60
2022-10-31T03:40:53.462Z,10.58
2022-10-31T03:44:04.047Z,10.56
2022-10-31T03:47:10.502Z,10.53
2022-10-31T03:50:18.266Z,10.52
2022-10-31T03:53:33.081Z,10.51
2022-10-31T03:56:44.046Z,10.50
2022-10-31T03:59:54.191Z,10.49
2022-10-31T04:03:06.807Z,10.47
2022-10-31T04:06:16.874Z,10.47
2022-10-31T04:09:24.267Z,10.46
2022-10-31T04:12:31.886Z,10.47
2022-10-31T04:15:39.551Z,10.48
2022-10-31T04:18:46.286Z,10.49
2022-10-31T04:21:52.359Z,10.49
2022-10-31T04:24:58.440Z,10.51
2022-10-31T04:28:04.966Z,10.53
2022-10-31T04:31:13.141Z,10.55
2022-10-31T04:34:19.359Z,10.57
2022-10-31T04:37:25.435Z,10.59
2022-10-31T04:40:31.528Z,10.57
2022-10-31T04:43:37.730Z,10.54
2022-10-31T04:46:44.013Z,10.52
2022-10-31T04:49:48.486Z,10.51
2022-10-31T04:52:54.653Z,10.47
2022-10-31T04:56:01.819Z,10.49
2022-10-31T04:59:08.200Z,10.50
2022-10-31T05:02:12.869Z,10.51
2022-10-31T05:05:22.279Z,10.49
2022-10-31T05:08:28.337Z,10.51
2022-10-31T05:11:34.465Z,10.49
2022-10-31T05:14:42.377Z,10.48
2022-10-31T05:17:52.384Z,10.46
2022-10-31T05:20:58.540Z,10.45
2022-10-31T05:24:05.295Z,10.44
2022-10-31T05:27:11.407Z,10.42
2022-10-31T05:30:19.896Z,10.40
2022-10-31T05:33:25.984Z,10.38
2022-10-31T05:36:32.185Z,10.35
2022-10-31T05:39:38.206Z,10.32
2022-10-31T05:42:45.439Z,10.29
2022-10-31T05:45:56.337Z,10.27
2022-10-31T05:49:03.000Z,10.26
2022-10-31T05:52:09.499Z,10.25
2022-10-31T05:55:14.018Z,10.25
2022-10-31T05:58:20.120Z,10.25
2022-10-31T06:01:26.248Z,10.28
2022-10-31T06:04:32.395Z,10.31
2022-10-31T06:07:38.842Z,10.32
2022-10-31T06:10:44.994Z,10.33
2022-10-31T06:13:51.083Z,10.34
2022-10-31T06:16:58.168Z,10.36
2022-10-31T06:20:05.094Z,10.37
2022-10-31T06:23:11.259Z,10.39
2022-10-31T06:26:17.547Z,10.40
2022-10-31T06:29:22.261Z,10.40
2022-10-31T06:32:28.338Z,10.39
2022-10-31T06:35:34.517Z,10.41
2022-10-31T06:38:40.586Z,10.43
2022-10-31T06:41:49.058Z,10.47
2022-10-31T06:44:55.171Z,10.51
2022-10-31T06:48:16.628Z,10.56
2022-10-31T06:51:23.932Z,10.61
2022-10-31T06:54:30.321Z,10.65
2022-10-31T06:57:36.489Z,10.70
2022-10-31T07:00:42.755Z,10.74
2022-10-31T07:03:47.342Z,10.80
2022-10-31T07:06:54.557Z,10.82
2022-10-31T07:10:00.690Z,10.90
2022-10-31T07:13:07.899Z,10.96
2022-10-31T07:16:14.993Z,11.04
2022-10-31T07:19:21.293Z,11.11
2022-10-31T07:22:25.835Z,11.19
2022-10-31T07:25:32.211Z,11.22
2022-10-31T07:28:36.746Z,11.30
2022-10-31T07:31:42.917Z,11.35
2022-10-31T07:34:49.121Z,11.45
2022-10-31T07:37:55.762Z,11.52
2022-10-31T07:41:01.936Z,11.59
2022-10-31T07:44:06.846Z,11.67
2022-10-31T07:47:13.134Z,11.73
2022-10-31T07:50:18.646Z,11.85
2022-10-31T07:53:24.792Z,11.90
2022-10-31T07:56:30.846Z,11.99
2022-10-31T07:59:36.862Z,12.09
2022-10-31T08:02:43.207Z,12.18
2022-10-31T08:05:48.308Z,12.30
2022-10-31T08:08:54.517Z,12.37
2022-10-31T08:12:00.636Z,12.51
2022-10-31T08:15:07.959Z,12.60
2022-10-31T08:18:16.566Z,12.70
2022-10-31T08:21:22.606Z,12.81
2022-10-31T08:24:28.747Z,12.93
2022-10-31T08:27:34.817Z,13.03
2022-10-31T08:30:42.037Z,13.14
2022-10-31T08:33:48.083Z,13.25
2022-10-31T08:36:54.135Z,13.35
2022-10-31T08:40:00.219Z,13.44
2022-10-31T08:43:08.140Z,13.56
2022-10-31T08:46:14.538Z,13.67
2022-10-31T08:49:20.621Z,13.79
2022-10-31T08:52:51.225Z,13.91
2022-10-31T08:55:57.066Z,14.05
2022-10-31T08:59:03.495Z,14.17
2022-10-31T09:02:11.570Z,14.31
2022-10-31T09:05:17.972Z,14.46
2022-10-31T09:08:24.203Z,14.60
2022-10-31T09:11:28.725Z,14.74
2022-10-31T09:14:34.845Z,14.85
2022-10-31T09:17:41.027Z,15.01
2022-10-31T09:20:46.493Z,15.17
2022-10-31T09:23:54.998Z,15.27
2022-10-31T09:27:02.209Z,15.45
2022-10-31T09:30:09.784Z,15.62
2022-10-31T09:33:16.897Z,15.77
2022-10-31T09:36:22.986Z,15.92
2022-10-31T09:39:29.594Z,16.07
2022-10-31T09:42:50.831Z,16.23
2022-10-31T09:46:10.010Z,16.40
2022-10-31T09:49:36.397Z,16.57
2022-10-31T09:52:48.321Z,16.77
2022-10-31T09:55:55.889Z,16.95
2022-10-31T09:59:04.348Z,17.11
2022-10-31T10:02:20.199Z,17.26
2022-10-31T10:05:30.500Z,17.48
2022-10-31T10:08:38.091Z,17.62
2022-10-31T10:12:04.034Z,17.84
2022-10-31T10:15:32.514Z,18.10
2022-10-31T10:18:47.070Z,18.36
2022-10-31T10:22:02.548Z,18.56
2022-10-31T10:25:22.457Z,18.77
2022-10-31T10:28:39.270Z,18.96
2022-10-31T10:31:48.230Z,19.13
2022-10-31T10:34:57.313Z,19.27
2022-10-31T10:38:13.009Z,19.11
2022-10-31T10:41:21.542Z,18.83
2022-10-31T10:44:45.496Z,19.17
2022-10-31T10:47:59.206Z,19.53
2022-10-31T10:51:20.278Z,19.55
2022-10-31T10:54:59.775Z,19.20
2022-10-31T10:58:09.078Z,19.15
2022-10-31T11:01:17.294Z,19.64
2022-10-31T11:04:34.017Z,19.91
2022-10-31T11:07:43.715Z,19.69
2022-10-31T11:10:58.075Z,19.55
2022-10-31T11:14:07.602Z,19.63
2022-10-31T11:17:20.124Z,20.14
2022-10-31T11:20:35.748Z,20.45
2022-10-31T11:23:40.353Z,20.27
2022-10-31T11:26:48.642Z,20.12
2022-10-31T11:29:59.777Z,20.09
2022-10-31T11:33:08.033Z,20.11
2022-10-31T11:36:23.722Z,20.17
2022-10-31T11:39:28.558Z,20.23
2022-10-31T11:42:41.387Z,20.23
2022-10-31T11:45:47.640Z,20.31
2022-10-31T11:48:56.312Z,20.50
2022-10-31T11:52:06.828Z,21.01
2022-10-31T11:55:33.601Z,21.02
2022-10-31T11:58:39.810Z,20.95
2022-10-31T12:01:51.657Z,20.92
2022-10-31T12:05:09.217Z,20.93
2022-10-31T12:08:16.254Z,20.95
2022-10-31T12:11:40.258Z,20.99
2022-10-31T12:14:55.827Z,21.05
2022-10-31T12:18:28.610Z,21.11
2022-10-31T12:21:50.871Z,21.16
2022-10-31T12:25:19.239Z,21.21
2022-10-31T12:28:51.027Z,21.25
2022-10-31T12:32:17.875Z,21.27
2022-10-31T12:35:46.956Z,21.29
2022-10-31T12:39:14.309Z,21.33
2022-10-31T12:42:32.763Z,21.37
2022-10-31T12:45:54.386Z,21.41
2022-10-31T12:49:22.669Z,21.45
2022-10-31T12:52:43.082Z,21.48
2022-10-31T12:56:01.969Z,21.51
2022-10-31T12:59:15.167Z,21.53
2022-10-31T13:02:26.464Z,21.55
2022-10-31T13:05:36.429Z,21.57
2022-10-31T13:08:48.215Z,21.59
2022-10-31T13:11:59.162Z,21.62
2022-10-31T13:15:14.959Z,21.62
2022-10-31T13:18:41.003Z,21.61
2022-10-31T13:21:56.486Z,21.58
2022-10-31T13:25:12.225Z,21.55
2022-10-31T13:28:31.445Z,21.50
2022-10-31T13:31:41.893Z,21.44
2022-10-31T13:34:55.047Z,21.38
2022-10-31T13:38:11.669Z,21.33
2022-10-31T13:41:32.459Z,21.27
2022-10-31T13:44:39.681Z,21.20
2022-10-31T13:47:57.014Z,21.13
2022-10-31T13:51:04.895Z,21.06
2022-10-31T13:54:25.787Z,21.00
2022-10-31T13:57:37.340Z,20.93
2022-10-31T14:00:43.887Z,20.87
2022-10-31T14:04:11.094Z,20.82
2022-10-31T14:07:23.850Z,20.75
2022-10-31T14:10:33.387Z,20.70
2022-10-31T14:13:44.117Z,20.64
2022-10-31T14:16:55.902Z,20.59
2022-10-31T14:20:05.585Z,20.54
2022-10-31T14:23:37.424Z,20.48
2022-10-31T14:26:53.641Z,20.40
2022-10-31T14:30:15.997Z,20.33
2022-10-31T14:33:24.588Z,20.24
2022-10-31T14:36:41.685Z,20.14
2022-10-31T14:40:00.539Z,20.01
2022-10-31T14:43:45.647Z,19.88
2022-10-31T14:46:59.315Z,19.72
2022-10-31T14:50:22.664Z,19.60
2022-10-31T14:53:31.689Z,19.46
2022-10-31T14:56:43.582Z,19.29
2022-10-31T14:59:55.880Z,19.14
2022-10-31T15:03:13.526Z,19.11
2022-10-31T15:06:22.146Z,19.53
2022-10-31T15:09:31.056Z,19.86
2022-10-31T15:12:39.510Z,20.06
2022-10-31T15:15:49.734Z,20.19
2022-10-31T15:19:00.723Z,20.28
2022-10-31T15:22:07.002Z,20.34
2022-10-31T15:25:21.989Z,20.36
2022-10-31T15:28:29.255Z,20.24
2022-10-31T15:31:35.907Z,19.68
2022-10-31T15:34:43.967Z,19.17
2022-10-31T15:37:50.166Z,18.74
2022-10-31T15:41:00.286Z,18.50
2022-10-31T15:44:14.924Z,18.76
2022-10-31T15:47:22.974Z,19.02
2022-10-31T15:50:34.768Z,19.12
2022-10-31T15:53:49.206Z,19.16
2022-10-31T15:56:55.553Z,19.16
2022-10-31T16:00:02.335Z,19.15
2022-10-31T16:03:20.585Z,19.11
2022-10-31T16:06:26.849Z,19.09
2022-10-31T16:09:33.316Z,19.06
2022-10-31T16:12:46.674Z,19.01
2022-10-31T16:16:21.237Z,18.95
2022-10-31T16:19:25.455Z,18.86
2022-10-31T16:22:33.998Z,18.77
2022-10-31T16:25:41.513Z,18.56
2022-10-31T16:29:03.339Z,17.93
2022-10-31T16:32:28.340Z,17.28
2022-10-31T16:35:38.419Z,16.94
2022-10-31T16:38:44.538Z,17.14
2022-10-31T16:41:51.477Z,17.32
2022-10-31T16:44:57.627Z,17.36
2022-10-31T16:48:08.343Z,17.39
2022-10-31T16:51:14.490Z,17.38
2022-10-31T16:54:21.229Z,17.35
2022-10-31T16:57:32.014Z,17.32
2022-10-31T17:00:38.395Z,17.30
2022-10-31T17:03:44.446Z,17.27
2022-10-31T17:06:48.963Z,17.23
2022-10-31T17:09:55.112Z,17.17
2022-10-31T17:13:00.208Z,17.13
2022-10-31T17:16:07.453Z,17.06
2022-10-31T17:19:15.402Z,17.01
2022-10-31T17:22:21.491Z,16.95
2022-10-31T17:25:26.989Z,16.90
2022-10-31T17:28:33.033Z,16.81
2022-10-31T17:31:39.909Z,16.77
2022-10-31T17:34:46.089Z,16.71
2022-10-31T17:37:50.929Z,16.67
2022-10-31T17:40:57.135Z,16.61
2022-10-31T17:44:03.600Z,16.58
2022-10-31T17:47:09.801Z,16.53
2022-10-31T17:50:16.166Z,16.46
2022-10-31T17:53:22.744Z,16.37
2022-10-31T17:56:29.419Z,16.29
2022-10-31T17:59:35.497Z,16.22
2022-10-31T18:02:40.104Z,16.14
2022-10-31T18:05:54.618Z,16.07
2022-10-31T18:09:03.523Z,16.01
2022-10-31T18:12:09.922Z,15.96
2022-10-31T18:15:16.301Z,15.90
2022-10-31T18:18:23.141Z,15.84
2022-10-31T18:21:29.483Z,15.77
2022-10-31T18:24:35.618Z,15.70
2022-10-31T18:27:40.085Z,15.64
2022-10-31T18:30:46.296Z,15.56
2022-10-31T18:33:53.554Z,15.54
2022-10-31T18:36:59.733Z,15.50
2022-10-31T18:40:04.687Z,15.50
2022-10-31T18:43:11.044Z,15.44
2022-10-31T18:46:18.695Z,15.40
2022-10-31T18:49:26.029Z,15.34
2022-10-31T18:52:32.890Z,15.26
2022-10-31T18:55:45.481Z,15.19
2022-10-31T18:58:56.255Z,15.12
2022-10-31T19:02:02.994Z,15.04
2022-10-31T19:05:10.220Z,14.97
2022-10-31T19:08:16.499Z,14.91
2022-10-31T19:11:23.140Z,14.85
2022-10-31T19:14:29.225Z,14.79
2022-10-31T19:17:35.403Z,14.73
2022-10-31T19:20:40.444Z,14.66
2022-10-31T19:23:47.451Z,14.56
2022-10-31T19:26:53.655Z,14.52
2022-10-31T19:29:58.360Z,14.47
2022-10-31T19:33:04.585Z,14.39
2022-10-31T19:36:10.454Z,14.37
2022-10-31T19:39:15.198Z,14.30
2022-10-31T19:42:21.778Z,14.27
2022-10-31T19:45:27.892Z,14.28
2022-10-31T19:48:36.791Z,14.24
2022-10-31T19:51:42.945Z,14.19
2022-10-31T19:54:47.406Z,14.16
2022-10-31T19:58:01.820Z,14.08
2022-10-31T20:01:12.382Z,14.02
2022-10-31T20:04:18.812Z,13.94
2022-10-31T20:07:25.134Z,13.84
2022-10-31T20:10:31.337Z,13.75
2022-10-31T20:13:35.764Z,13.67
2022-10-31T20:16:42.450Z,13.55
2022-10-31T20:19:48.743Z,13.50
2022-10-31T20:22:55.034Z,13.46
2022-10-31T20:25:59.593Z,13.44
2022-10-31T20:29:06.526Z,13.38
2022-10-31T20:32:12.625Z,13.38
2022-10-31T20:35:19.180Z,13.37
2022-10-31T20:38:25.442Z,13.34
2022-10-31T20:41:29.919Z,13.31
2022-10-31T20:44:36.235Z,13.25
2022-10-31T20:47:42.646Z,13.24
2022-10-31T20:50:48.873Z,13.22
2022-10-31T20:53:53.965Z,13.19
2022-10-31T20:57:00.177Z,13.14
2022-10-31T21:00:05.483Z,13.12
2022-10-31T21:03:11.565Z,13.05
2022-10-31T21:06:19.032Z,13.02
2022-10-31T21:09:25.126Z,12.99
2022-10-31T21:12:31.196Z,12.96
2022-10-31T21:15:37.438Z,12.94
2022-10-31T21:18:42.960Z,12.92
2022-10-31T21:21:49.136Z,12.87
2022-10-31T21:24:55.206Z,12.85
2022-10-31T21:28:01.863Z,12.83
2022-10-31T21:31:11.919Z,12.78
2022-10-31T21:34:18.282Z,12.72
2022-10-31T21:37:24.377Z,12.64
2022-10-31T21:40:30.806Z,12.55
2022-10-31T21:43:39.120Z,12.47
2022-10-31T21:46:47.535Z,12.41
2022-10-31T21:49:53.634Z,12.39
2022-10-31T21:53:20.854Z,12.38
2022-10-31T21:56:27.020Z,12.38
2022-10-31T21:59:31.752Z,12.37
2022-10-31T22:02:38.286Z,12.31
2022-10-31T22:05:44.327Z,12.27
2022-10-31T22:08:51.026Z,12.22
2022-10-31T22:11:57.425Z,12.18
2022-10-31T22:15:03.676Z,12.13
2022-10-31T22:18:08.250Z,12.09
2022-10-31T22:21:16.958Z,12.04
2022-10-31T22:24:23.294Z,12.04
2022-10-31T22:27:29.548Z,12.03
2022-10-31T22:30:38.444Z,12.01
2022-10-31T22:33:44.690Z,12.01
2022-10-31T22:36:49.300Z,11.99
2022-10-31T22:39:55.875Z,11.96
2022-10-31T22:43:02.370Z,11.96
2022-10-31T22:46:11.714Z,11.95
2022-10-31T22:49:17.937Z,11.94
2022-10-31T22:52:24.113Z,11.94
2022-10-31T22:55:30.380Z,11.90
2022-10-31T22:58:35.549Z,11.84
2022-10-31T23:01:41.913Z,11.73
2022-10-31T23:04:48.151Z,11.67
2022-10-31T23:07:54.701Z,11.63
2022-10-31T23:11:00.742Z,11.60
2022-10-31T23:14:12.127Z,11.59
2022-10-31T23:17:18.840Z,11.57
2022-10-31T23:20:25.122Z,11.55
2022-10-31T23:23:29.748Z,11.53
2022-10-31T23:26:53.317Z,11.49
2022-10-31T23:30:01.473Z,11.50
2022-10-31T23:33:07.705Z,11.49
2022-10-31T23:36:14.296Z,11.48
2022-10-31T23:39:24.148Z,11.46
2022-10-31T23:42:31.685Z,11.44
2022-10-31T23:45:37.854Z,11.43
2022-10-31T23:48:48.143Z,11.41
2022-10-31T23:51:56.682Z,11.38
2022-10-31T23:55:02.915Z,11.34
2022-10-31T23:58:08.990Z,11.30
